Blind Date — V7JG2 — position and weather

sailwx.info

Track history (hours):
 
Tides and Currents Weather Stations Pressure Air Temp Water Temp Dewpoint Dewpoint Depression Visibility Wind Speed Wind Dir Waves Ship Positions

Blind Date

Last reported at 2018-May-22 17:40 UTC. Time now 2018-May-27 08:08 UTC.
Position N 37°22' W 000°54'.

Length 41 m; draft 3 m.

MMSI: 538080045.

Date/timePositionNaut miles runAvg speedWind from/ knotsBaromVisibWave heightAir tempDewpointWater temp
2018-May-22 17:40N 37°22' W 000°54'211.2
2018-May-22 17:29N 37°23' W 000°52'611.1
2018-May-22 16:57N 37°27' W 000°46'190 6.4
2018-May-21 11:20N 39°24' E 002°25'410.9
2018-May-21 11:00N 39°26' E 002°29'4 9.0
2018-May-21 10:31N 39°29' E 002°32'5 9.4
2018-May-21 10:00N 39°32' E 002°37'2 4.0
2018-May-21 09:29N 39°34' E 002°38'0 0.0
2018-May-21 08:58N 39°34' E 002°38'1 2.0
2018-May-21 08:30N 39°33' E 002°39'4 7.6
2018-May-21 08:00N 39°32' E 002°34'0 0.0
2018-May-21 07:20N 39°32' E 002°34'0 0.0
2018-May-21 06:04N 39°32' E 002°34'0 0.0
2018-May-21 05:58N 39°32' E 002°34'0 0.0
2018-May-21 05:28N 39°32' E 002°34'0 0.0
2018-May-21 04:58N 39°32' E 002°34'0 0.0
2018-May-21 04:28N 39°32' E 002°34'0 0.0
2018-May-21 03:55N 39°32' E 002°34'0 0.0
2018-May-21 03:28N 39°32' E 002°34'0 0.0
2018-May-21 02:58N 39°32' E 002°34'0 0.0
2018-May-21 02:28N 39°32' E 002°34'0 0.0
2018-May-21 01:58N 39°32' E 002°34'0 0.0
2018-May-21 01:28N 39°32' E 002°34'0 0.0
2018-May-21 00:58N 39°32' E 002°34'0 0.0
2018-May-21 00:28N 39°32' E 002°34'0 0.0
2018-May-20 23:58N 39°32' E 002°34'0 0.0
2018-May-20 23:28N 39°32' E 002°34'0 0.0
2018-May-20 22:58N 39°32' E 002°34'0 0.0
2018-May-20 22:28N 39°32' E 002°34'0 0.0
2018-May-20 21:58N 39°32' E 002°34'0 0.0
2018-May-20 21:28N 39°32' E 002°34'0 0.0
2018-May-20 20:55N 39°32' E 002°34'0 0.0
2018-May-20 20:13N 39°32' E 002°34'0 0.0
2018-May-20 19:55N 39°32' E 002°34'0 0.0
2018-May-20 19:19N 39°32' E 002°34'0 0.0
2018-May-20 18:55N 39°32' E 002°34'0 0.0
2018-May-20 18:13N 39°32' E 002°34'0 0.0
2018-May-20 17:58N 39°32' E 002°34'0 0.0
2018-May-20 17:25N 39°32' E 002°34'0 0.0
2018-May-20 16:55N 39°32' E 002°34'0 0.0
2018-May-20 16:28N 39°32' E 002°34'0 0.0
2018-May-20 15:58N 39°32' E 002°34'0 0.0
2018-May-20 15:28N 39°32' E 002°34'0 0.0
2018-May-20 14:58N 39°32' E 002°34'0 0.0
2018-May-20 14:25N 39°32' E 002°34'0 0.0
2018-May-20 13:58N 39°32' E 002°34'0 0.0
2018-May-20 13:28N 39°32' E 002°34'0 0.0
2018-May-20 12:58N 39°32' E 002°34'0 0.0
2018-May-20 12:28N 39°32' E 002°34'0 0.0
2018-May-20 11:46N 39°32' E 002°34'0 0.0
2018-May-20 11:28N 39°32' E 002°34'0 0.0
2018-May-20 10:58N 39°32' E 002°34'0 0.0
2018-May-20 10:22N 39°32' E 002°34'0 0.0
2018-May-20 09:52N 39°32' E 002°34'0 0.0
2018-May-20 09:16N 39°32' E 002°34'0 0.0
2018-May-20 08:58N 39°32' E 002°34'0 0.0
2018-May-20 08:22N 39°32' E 002°34'0 0.0
2018-May-20 07:58N 39°32' E 002°34'0 0.0
2018-May-20 07:28N 39°32' E 002°34'0 0.0
2018-May-20 06:58N 39°32' E 002°34'0 0.0
2018-May-20 06:28N 39°32' E 002°34'0 0.0
2018-May-20 05:58N 39°32' E 002°34'0 0.0
2018-May-20 05:22N 39°32' E 002°34'0 0.0
2018-May-20 04:58N 39°32' E 002°34'0 0.0
2018-May-20 04:28N 39°32' E 002°34'0 0.0
2018-May-20 03:58N 39°32' E 002°34'0 0.0
2018-May-20 02:52N 39°32' E 002°34'0 0.0
2018-May-20 02:13N 39°32' E 002°34'0 0.0
2018-May-20 01:55N 39°32' E 002°34'0 0.0
2018-May-20 01:25N 39°32' E 002°34'0 0.0
2018-May-20 00:24N 39°32' E 002°34'0 0.0
2018-May-19 22:51N 39°32' E 002°34'0 0.0
2018-May-19 22:27N 39°32' E 002°34'0 0.0
2018-May-19 21:48N 39°32' E 002°34'0 0.0
2018-May-19 21:30N 39°32' E 002°34'0 0.0
2018-May-19 07:42N 39°32' E 002°34'0 0.0
2018-May-19 05:09N 39°32' E 002°34'0 0.0
2018-May-19 04:48N 39°32' E 002°34'0 0.0
2018-May-19 03:15N 39°32' E 002°34'0 0.0
2018-May-19 03:00N 39°32' E 002°34'0 0.0
2018-May-19 02:30N 39°32' E 002°34'0 0.0
2018-May-19 02:00N 39°32' E 002°34'0 0.0
2018-May-19 01:30N 39°32' E 002°34'0 0.0
2018-May-19 00:57N 39°32' E 002°34'0 0.0
2018-May-19 00:30N 39°32' E 002°34'0 0.0
2018-May-19 00:00N 39°32' E 002°34'0 0.0
2018-May-18 23:30N 39°32' E 002°34'0 0.0
2018-May-18 22:57N 39°32' E 002°34'0 0.0
2018-May-18 22:30N 39°32' E 002°34'0 0.0
2018-May-18 22:00N 39°32' E 002°34'0 0.0
2018-May-18 20:48N 39°32' E 002°34'0 0.0
2018-May-18 20:27N 39°32' E 002°34'0 0.0
2018-May-18 19:53N 39°32' E 002°34'0 0.0
2018-May-18 19:29N 39°32' E 002°34'0 0.0
2018-May-18 18:53N 39°32' E 002°34'0 0.0
2018-May-18 18:29N 39°32' E 002°34'0 0.0
2018-May-18 17:59N 39°32' E 002°34'0 0.0
2018-May-18 17:29N 39°32' E 002°34'0 0.0
2018-May-18 16:59N 39°32' E 002°34'0 0.0
2018-May-18 16:29N 39°32' E 002°34'0 0.0
2018-May-18 15:59N 39°32' E 002°34'0 0.0
2018-May-18 15:29N 39°32' E 002°34'0 0.0
2018-May-18 15:00N 39°32' E 002°34'1 1.9
2018-May-18 14:30N 39°31' E 002°35'1 2.3
2018-May-18 14:00N 39°32' E 002°34'0 0.7
2018-May-18 13:28N 39°32' E 002°34'0 0.0
2018-May-18 12:28N 39°32' E 002°34'0 0.0
2018-May-18 11:40N 39°32' E 002°34'0 0.0
2018-May-18 11:25N 39°32' E 002°34'0 0.0
2018-May-18 10:58N 39°32' E 002°34'0 0.0
2018-May-18 10:28N 39°32' E 002°34'0 0.0
2018-May-18 09:58N 39°32' E 002°34'0 0.0
2018-May-18 09:25N 39°32' E 002°34'0 0.0
2018-May-18 08:55N 39°32' E 002°34'0 0.0
2018-May-18 08:16N 39°32' E 002°34'0 0.0
2018-May-18 07:58N 39°32' E 002°34'0 0.0
2018-May-18 05:43N 39°32' E 002°34'0 0.0
2018-May-18 05:25N 39°32' E 002°34'0 0.0
2018-May-18 04:58N 39°32' E 002°34'0 0.0
2018-May-18 04:22N 39°32' E 002°34'0 0.0
2018-May-18 03:46N 39°32' E 002°34'0 0.0
2018-May-18 03:25N 39°32' E 002°34'0 0.0
2018-May-18 02:58N 39°32' E 002°34'0 0.0
2018-May-18 02:25N 39°32' E 002°34'0 0.0
2018-May-18 01:58N 39°32' E 002°34'0 0.0
2018-May-18 01:25N 39°32' E 002°34'0 0.0
2018-May-18 00:58N 39°32' E 002°34'0 0.0
2018-May-18 00:25N 39°32' E 002°34'0 0.0
2018-May-17 23:58N 39°32' E 002°34'0 0.0
2018-May-17 23:28N 39°32' E 002°34'0 0.0
2018-May-17 22:58N 39°32' E 002°34'0 0.0
2018-May-17 22:16N 39°32' E 002°34'0 0.0
2018-May-17 21:52N 39°32' E 002°34'0 0.0
2018-May-17 20:33N 39°32' E 002°34'0 0.2
2018-May-17 20:28N 39°32' E 002°34'4 8.9
2018-May-17 19:59N 39°28' E 002°32'1 0.2
2018-May-17 12:50N 39°27' E 002°31'310.3
2018-May-17 12:30N 39°30' E 002°33'2 0.9
2018-May-17 10:22N 39°32' E 002°34'0 0.0
2018-May-17 08:12N 39°32' E 002°34'0 0.0
2018-May-17 04:33N 39°32' E 002°34'0 0.0
2018-May-17 04:15N 39°32' E 002°34'0 0.0
2018-May-17 03:57N 39°32' E 002°34'0 0.0
2018-May-17 03:27N 39°32' E 002°34'0 0.0
2018-May-17 03:00N 39°32' E 002°34'0 0.0
2018-May-17 02:21N 39°32' E 002°34'0 0.0
2018-May-17 01:57N 39°32' E 002°34'0 0.0
2018-May-17 01:30N 39°32' E 002°34'0 0.0
2018-May-17 00:57N 39°32' E 002°34'0 0.0
2018-May-17 00:30N 39°32' E 002°34'0 0.0
2018-May-17 00:00N 39°32' E 002°34'0 0.0
2018-May-16 23:30N 39°32' E 002°34'0 0.0
2018-May-16 23:00N 39°32' E 002°34'0 0.0
2018-May-16 22:30N 39°32' E 002°34'0 0.0
2018-May-16 22:00N 39°32' E 002°34'0 0.0
2018-May-16 21:30N 39°32' E 002°34'0 0.0
2018-May-16 17:00N 39°32' E 002°34'0 0.0
2018-May-16 15:24N 39°32' E 002°34'0 0.0
2018-May-16 15:00N 39°32' E 002°34'0 0.0
2018-May-16 10:24N 39°32' E 002°34'0 0.0
2018-May-16 10:00N 39°32' E 002°34'0 0.0
2018-May-16 09:24N 39°32' E 002°34'0 0.0
2018-May-16 08:54N 39°32' E 002°34'0 0.0
2018-May-16 04:36N 39°32' E 002°34'0 0.0
2018-May-16 04:18N 39°32' E 002°34'0 0.0
2018-May-16 04:00N 39°32' E 002°34'0 0.0
2018-May-16 02:35N 39°32' E 002°34'0 0.0
2018-May-16 02:29N 39°32' E 002°34'0 0.0
2018-May-16 01:59N 39°32' E 002°34'0 0.0
2018-May-16 01:29N 39°32' E 002°34'0 0.0
2018-May-16 00:59N 39°32' E 002°34'0 0.0
2018-May-16 00:29N 39°32' E 002°34'0 0.0
2018-May-15 23:59N 39°32' E 002°34'0 0.0
2018-May-15 23:29N 39°32' E 002°34'0 0.0
2018-May-15 22:56N 39°32' E 002°34'0 0.0
2018-May-15 22:29N 39°32' E 002°34'0 0.0
2018-May-15 21:59N 39°32' E 002°34'0 0.0
2018-May-15 20:35N 39°32' E 002°34'0 0.0
2018-May-15 20:23N 39°32' E 002°34'0 0.0
2018-May-15 19:02N 39°32' E 002°34'0 0.0
2018-May-15 18:53N 39°32' E 002°34'0 0.0
2018-May-15 16:11N 39°32' E 002°34'0 0.0
2018-May-15 15:41N 39°32' E 002°34'0 0.0
2018-May-15 15:29N 39°32' E 002°34'0 0.0
2018-May-15 11:17N 39°32' E 002°34'0 0.0
2018-May-15 06:14N 39°32' E 002°34'0 0.0
2018-May-15 05:11N 39°32' E 002°34'0 0.0
2018-May-15 04:53N 39°32' E 002°34'0 0.0
2018-May-15 04:29N 39°32' E 002°34'0 0.0
2018-May-15 03:59N 39°32' E 002°34'0 0.0
2018-May-15 03:29N 39°32' E 002°34'0 0.0
2018-May-15 02:50N 39°32' E 002°34'0 0.0
2018-May-15 02:29N 39°32' E 002°34'0 0.0
2018-May-15 01:59N 39°32' E 002°34'0 0.0
2018-May-15 01:29N 39°32' E 002°34'0 0.0
2018-May-15 00:59N 39°32' E 002°34'0 0.0
2018-May-15 00:29N 39°32' E 002°34'0 0.0
2018-May-14 23:59N 39°32' E 002°34'0 0.0
2018-May-14 23:29N 39°32' E 002°34'0 0.0
2018-May-14 22:59N 39°32' E 002°34'0 0.0
2018-May-14 22:29N 39°32' E 002°34'0 0.0
2018-May-14 21:22N 39°32' E 002°34'0 0.0
2018-May-14 20:58N 39°32' E 002°34'0 0.0
2018-May-14 20:28N 39°32' E 002°34'0 0.0
2018-May-14 19:10N 39°32' E 002°34'0 0.0
2018-May-14 18:52N 39°32' E 002°34'0 0.0
2018-May-14 18:22N 39°32' E 002°34'0 0.0
2018-May-14 17:55N 39°32' E 002°34'0 0.0
2018-May-14 16:31N 39°32' E 002°34'0 0.0
2018-May-14 16:28N 39°32' E 002°34'0 0.0
2018-May-14 15:58N 39°32' E 002°34'0 0.0
2018-May-14 15:28N 39°32' E 002°34'0 0.0
2018-May-14 14:49N 39°32' E 002°34'0 0.0
2018-May-14 14:28N 39°32' E 002°34'0 0.0
2018-May-14 13:58N 39°32' E 002°34'0 0.0
2018-May-14 13:28N 39°32' E 002°34'0 0.0
2018-May-14 12:58N 39°32' E 002°34'0 0.0
2018-May-14 12:22N 39°32' E 002°34'0 0.0
2018-May-14 11:52N 39°32' E 002°34'0 0.0
2018-May-14 11:28N 39°32' E 002°34'0 0.0
2018-May-14 10:58N 39°32' E 002°34'0 0.0
2018-May-14 10:25N 39°32' E 002°34'0 0.0
2018-May-14 09:55N 39°32' E 002°34'0 0.0
2018-May-14 09:28N 39°32' E 002°34'0 0.0
2018-May-14 08:58N 39°32' E 002°34'0 0.0
2018-May-14 08:28N 39°32' E 002°34'0 0.0
2018-May-14 07:58N 39°32' E 002°34'0 0.0
2018-May-14 07:28N 39°32' E 002°34'0 0.0
2018-May-14 06:52N 39°32' E 002°34'0 0.0
2018-May-14 06:22N 39°32' E 002°34'0 0.0
2018-May-14 05:52N 39°32' E 002°34'0 0.0
2018-May-14 05:28N 39°32' E 002°34'0 0.0
2018-May-14 04:55N 39°32' E 002°34'0 0.0
2018-May-14 04:28N 39°32' E 002°34'0 0.0
2018-May-14 03:58N 39°32' E 002°34'0 0.0
2018-May-14 03:28N 39°32' E 002°34'0 0.0
2018-May-14 02:58N 39°32' E 002°34'0 0.0
2018-May-14 02:28N 39°32' E 002°34'0 0.0
2018-May-14 01:58N 39°32' E 002°34'0 0.0
2018-May-14 01:28N 39°32' E 002°34'0 0.0
2018-May-14 00:58N 39°32' E 002°34'0 0.0
2018-May-14 00:28N 39°32' E 002°34'0 0.0
2018-May-13 23:52N 39°32' E 002°34'0 0.0
2018-May-13 23:28N 39°32' E 002°34'0 0.0
2018-May-13 22:58N 39°32' E 002°34'0 0.0
2018-May-13 22:25N 39°32' E 002°34'0 0.0
2018-May-13 21:58N 39°32' E 002°34'0 0.0
2018-May-13 21:28N 39°32' E 002°34'0 0.0
2018-May-13 20:34N 39°32' E 002°34'0 0.0
2018-May-13 20:22N 39°32' E 002°34'0 0.0
2018-May-13 19:28N 39°32' E 002°34'0 0.0
2018-May-13 18:49N 39°32' E 002°34'0 0.0
2018-May-13 18:28N 39°32' E 002°34'0 0.0
2018-May-13 17:58N 39°32' E 002°34'0 0.0
2018-May-13 17:28N 39°32' E 002°34'0 0.0
2018-May-13 17:01N 39°32' E 002°34'0 0.0
2018-May-13 16:28N 39°32' E 002°34'0 0.0
2018-May-13 16:00N 39°32' E 002°34'0 0.0
2018-May-13 06:54N 39°32' E 002°34'0 0.0
2018-May-13 06:12N 39°32' E 002°34'0 0.0
2018-May-13 05:51N 39°32' E 002°34'0 0.0
2018-May-13 05:30N 39°32' E 002°34'0 0.0
2018-May-13 04:42N 39°32' E 002°34'0 0.0
2018-May-13 04:24N 39°32' E 002°34'0 0.0
2018-May-13 03:57N 39°32' E 002°34'0 0.0
2018-May-13 02:24N 39°32' E 002°34'0 0.0
2018-May-13 02:00N 39°32' E 002°34'0 0.0
2018-May-13 01:27N 39°32' E 002°34'0 0.0
2018-May-13 00:54N 39°32' E 002°34'0 0.0
2018-May-13 00:30N 39°32' E 002°34'0 0.0
2018-May-13 00:00N 39°32' E 002°34'0 0.0
2018-May-12 23:30N 39°32' E 002°34'0 0.0
2018-May-12 23:00N 39°32' E 002°34'0 0.0
2018-May-12 22:30N 39°32' E 002°34'0 0.0
2018-May-12 22:00N 39°32' E 002°34'0 0.0
2018-May-12 21:21N 39°32' E 002°34'0 0.0
2018-May-12 21:00N 39°32' E 002°34'0 0.0
2018-May-12 20:30N 39°32' E 002°34'  
Track history (hours):
 
Tides and Currents Weather Stations Pressure Air Temp Water Temp Dewpoint Dewpoint Depression Visibility Wind Speed Wind Dir Waves Ship Positions

Blind Date

Last reported at 2018-May-22 17:40 UTC. Time now 2018-May-27 08:08 UTC.
Position N 37°22' W 000°54'.

Length 41 m; draft 3 m.

MMSI: 538080045.

Date/timePositionNaut miles runAvg speedWind from/ knotsBaromVisibWave heightAir tempDewpointWater temp
2018-May-22 17:40N 37°22' W 000°54'211.2
2018-May-22 17:29N 37°23' W 000°52'611.1
2018-May-22 16:57N 37°27' W 000°46'190 6.4
2018-May-21 11:20N 39°24' E 002°25'410.9
2018-May-21 11:00N 39°26' E 002°29'4 9.0
2018-May-21 10:31N 39°29' E 002°32'5 9.4
2018-May-21 10:00N 39°32' E 002°37'2 4.0
2018-May-21 09:29N 39°34' E 002°38'0 0.0
2018-May-21 08:58N 39°34' E 002°38'1 2.0
2018-May-21 08:30N 39°33' E 002°39'4 7.6
2018-May-21 08:00N 39°32' E 002°34'0 0.0
2018-May-21 07:20N 39°32' E 002°34'0 0.0
2018-May-21 06:04N 39°32' E 002°34'0 0.0
2018-May-21 05:58N 39°32' E 002°34'0 0.0
2018-May-21 05:28N 39°32' E 002°34'0 0.0
2018-May-21 04:58N 39°32' E 002°34'0 0.0
2018-May-21 04:28N 39°32' E 002°34'0 0.0
2018-May-21 03:55N 39°32' E 002°34'0 0.0
2018-May-21 03:28N 39°32' E 002°34'0 0.0
2018-May-21 02:58N 39°32' E 002°34'0 0.0
2018-May-21 02:28N 39°32' E 002°34'0 0.0
2018-May-21 01:58N 39°32' E 002°34'0 0.0
2018-May-21 01:28N 39°32' E 002°34'0 0.0
2018-May-21 00:58N 39°32' E 002°34'0 0.0
2018-May-21 00:28N 39°32' E 002°34'0 0.0
2018-May-20 23:58N 39°32' E 002°34'0 0.0
2018-May-20 23:28N 39°32' E 002°34'0 0.0
2018-May-20 22:58N 39°32' E 002°34'0 0.0
2018-May-20 22:28N 39°32' E 002°34'0 0.0
2018-May-20 21:58N 39°32' E 002°34'0 0.0
2018-May-20 21:28N 39°32' E 002°34'0 0.0
2018-May-20 20:55N 39°32' E 002°34'0 0.0
2018-May-20 20:13N 39°32' E 002°34'0 0.0
2018-May-20 19:55N 39°32' E 002°34'0 0.0
2018-May-20 19:19N 39°32' E 002°34'0 0.0
2018-May-20 18:55N 39°32' E 002°34'0 0.0
2018-May-20 18:13N 39°32' E 002°34'0 0.0
2018-May-20 17:58N 39°32' E 002°34'0 0.0
2018-May-20 17:25N 39°32' E 002°34'0 0.0
2018-May-20 16:55N 39°32' E 002°34'0 0.0
2018-May-20 16:28N 39°32' E 002°34'0 0.0
2018-May-20 15:58N 39°32' E 002°34'0 0.0
2018-May-20 15:28N 39°32' E 002°34'0 0.0
2018-May-20 14:58N 39°32' E 002°34'0 0.0
2018-May-20 14:25N 39°32' E 002°34'0 0.0
2018-May-20 13:58N 39°32' E 002°34'0 0.0
2018-May-20 13:28N 39°32' E 002°34'0 0.0
2018-May-20 12:58N 39°32' E 002°34'0 0.0
2018-May-20 12:28N 39°32' E 002°34'0 0.0
2018-May-20 11:46N 39°32' E 002°34'0 0.0
2018-May-20 11:28N 39°32' E 002°34'0 0.0
2018-May-20 10:58N 39°32' E 002°34'0 0.0
2018-May-20 10:22N 39°32' E 002°34'0 0.0
2018-May-20 09:52N 39°32' E 002°34'0 0.0
2018-May-20 09:16N 39°32' E 002°34'0 0.0
2018-May-20 08:58N 39°32' E 002°34'0 0.0
2018-May-20 08:22N 39°32' E 002°34'0 0.0
2018-May-20 07:58N 39°32' E 002°34'0 0.0
2018-May-20 07:28N 39°32' E 002°34'0 0.0
2018-May-20 06:58N 39°32' E 002°34'0 0.0
2018-May-20 06:28N 39°32' E 002°34'0 0.0
2018-May-20 05:58N 39°32' E 002°34'0 0.0
2018-May-20 05:22N 39°32' E 002°34'0 0.0
2018-May-20 04:58N 39°32' E 002°34'0 0.0
2018-May-20 04:28N 39°32' E 002°34'0 0.0
2018-May-20 03:58N 39°32' E 002°34'0 0.0
2018-May-20 02:52N 39°32' E 002°34'0 0.0
2018-May-20 02:13N 39°32' E 002°34'0 0.0
2018-May-20 01:55N 39°32' E 002°34'0 0.0
2018-May-20 01:25N 39°32' E 002°34'0 0.0
2018-May-20 00:24N 39°32' E 002°34'0 0.0
2018-May-19 22:51N 39°32' E 002°34'0 0.0
2018-May-19 22:27N 39°32' E 002°34'0 0.0
2018-May-19 21:48N 39°32' E 002°34'0 0.0
2018-May-19 21:30N 39°32' E 002°34'0 0.0
2018-May-19 07:42N 39°32' E 002°34'0 0.0
2018-May-19 05:09N 39°32' E 002°34'0 0.0
2018-May-19 04:48N 39°32' E 002°34'0 0.0
2018-May-19 03:15N 39°32' E 002°34'0 0.0
2018-May-19 03:00N 39°32' E 002°34'0 0.0
2018-May-19 02:30N 39°32' E 002°34'0 0.0
2018-May-19 02:00N 39°32' E 002°34'0 0.0
2018-May-19 01:30N 39°32' E 002°34'0 0.0
2018-May-19 00:57N 39°32' E 002°34'0 0.0
2018-May-19 00:30N 39°32' E 002°34'0 0.0
2018-May-19 00:00N 39°32' E 002°34'0 0.0
2018-May-18 23:30N 39°32' E 002°34'0 0.0
2018-May-18 22:57N 39°32' E 002°34'0 0.0
2018-May-18 22:30N 39°32' E 002°34'0 0.0
2018-May-18 22:00N 39°32' E 002°34'0 0.0
2018-May-18 20:48N 39°32' E 002°34'0 0.0
2018-May-18 20:27N 39°32' E 002°34'0 0.0
2018-May-18 19:53N 39°32' E 002°34'0 0.0
2018-May-18 19:29N 39°32' E 002°34'0 0.0
2018-May-18 18:53N 39°32' E 002°34'0 0.0
2018-May-18 18:29N 39°32' E 002°34'0 0.0
2018-May-18 17:59N 39°32' E 002°34'0 0.0
2018-May-18 17:29N 39°32' E 002°34'0 0.0
2018-May-18 16:59N 39°32' E 002°34'0 0.0
2018-May-18 16:29N 39°32' E 002°34'0 0.0
2018-May-18 15:59N 39°32' E 002°34'0 0.0
2018-May-18 15:29N 39°32' E 002°34'0 0.0
2018-May-18 15:00N 39°32' E 002°34'1 1.9
2018-May-18 14:30N 39°31' E 002°35'1 2.3
2018-May-18 14:00N 39°32' E 002°34'0 0.7
2018-May-18 13:28N 39°32' E 002°34'0 0.0
2018-May-18 12:28N 39°32' E 002°34'0 0.0
2018-May-18 11:40N 39°32' E 002°34'0 0.0
2018-May-18 11:25N 39°32' E 002°34'0 0.0
2018-May-18 10:58N 39°32' E 002°34'0 0.0
2018-May-18 10:28N 39°32' E 002°34'0 0.0
2018-May-18 09:58N 39°32' E 002°34'0 0.0
2018-May-18 09:25N 39°32' E 002°34'0 0.0
2018-May-18 08:55N 39°32' E 002°34'0 0.0
2018-May-18 08:16N 39°32' E 002°34'0 0.0
2018-May-18 07:58N 39°32' E 002°34'0 0.0
2018-May-18 05:43N 39°32' E 002°34'0 0.0
2018-May-18 05:25N 39°32' E 002°34'0 0.0
2018-May-18 04:58N 39°32' E 002°34'0 0.0
2018-May-18 04:22N 39°32' E 002°34'0 0.0
2018-May-18 03:46N 39°32' E 002°34'0 0.0
2018-May-18 03:25N 39°32' E 002°34'0 0.0
2018-May-18 02:58N 39°32' E 002°34'0 0.0
2018-May-18 02:25N 39°32' E 002°34'0 0.0
2018-May-18 01:58N 39°32' E 002°34'0 0.0
2018-May-18 01:25N 39°32' E 002°34'0 0.0
2018-May-18 00:58N 39°32' E 002°34'0 0.0
2018-May-18 00:25N 39°32' E 002°34'0 0.0
2018-May-17 23:58N 39°32' E 002°34'0 0.0
2018-May-17 23:28N 39°32' E 002°34'0 0.0
2018-May-17 22:58N 39°32' E 002°34'0 0.0
2018-May-17 22:16N 39°32' E 002°34'0 0.0
2018-May-17 21:52N 39°32' E 002°34'0 0.0
2018-May-17 20:33N 39°32' E 002°34'0 0.2
2018-May-17 20:28N 39°32' E 002°34'4 8.9
2018-May-17 19:59N 39°28' E 002°32'1 0.2
2018-May-17 12:50N 39°27' E 002°31'310.3
2018-May-17 12:30N 39°30' E 002°33'2 0.9
2018-May-17 10:22N 39°32' E 002°34'0 0.0
2018-May-17 08:12N 39°32' E 002°34'0 0.0
2018-May-17 04:33N 39°32' E 002°34'0 0.0
2018-May-17 04:15N 39°32' E 002°34'0 0.0
2018-May-17 03:57N 39°32' E 002°34'0 0.0
2018-May-17 03:27N 39°32' E 002°34'0 0.0
2018-May-17 03:00N 39°32' E 002°34'0 0.0
2018-May-17 02:21N 39°32' E 002°34'0 0.0
2018-May-17 01:57N 39°32' E 002°34'0 0.0
2018-May-17 01:30N 39°32' E 002°34'0 0.0
2018-May-17 00:57N 39°32' E 002°34'0 0.0
2018-May-17 00:30N 39°32' E 002°34'0 0.0
2018-May-17 00:00N 39°32' E 002°34'0 0.0
2018-May-16 23:30N 39°32' E 002°34'0 0.0
2018-May-16 23:00N 39°32' E 002°34'0 0.0
2018-May-16 22:30N 39°32' E 002°34'0 0.0
2018-May-16 22:00N 39°32' E 002°34'0 0.0
2018-May-16 21:30N 39°32' E 002°34'0 0.0
2018-May-16 17:00N 39°32' E 002°34'0 0.0
2018-May-16 15:24N 39°32' E 002°34'0 0.0
2018-May-16 15:00N 39°32' E 002°34'0 0.0
2018-May-16 10:24N 39°32' E 002°34'0 0.0
2018-May-16 10:00N 39°32' E 002°34'0 0.0
2018-May-16 09:24N 39°32' E 002°34'0 0.0
2018-May-16 08:54N 39°32' E 002°34'0 0.0
2018-May-16 04:36N 39°32' E 002°34'0 0.0
2018-May-16 04:18N 39°32' E 002°34'0 0.0
2018-May-16 04:00N 39°32' E 002°34'0 0.0
2018-May-16 02:35N 39°32' E 002°34'0 0.0
2018-May-16 02:29N 39°32' E 002°34'0 0.0
2018-May-16 01:59N 39°32' E 002°34'0 0.0
2018-May-16 01:29N 39°32' E 002°34'0 0.0
2018-May-16 00:59N 39°32' E 002°34'0 0.0
2018-May-16 00:29N 39°32' E 002°34'0 0.0
2018-May-15 23:59N 39°32' E 002°34'0 0.0
2018-May-15 23:29N 39°32' E 002°34'0 0.0
2018-May-15 22:56N 39°32' E 002°34'0 0.0
2018-May-15 22:29N 39°32' E 002°34'0 0.0
2018-May-15 21:59N 39°32' E 002°34'0 0.0
2018-May-15 20:35N 39°32' E 002°34'0 0.0
2018-May-15 20:23N 39°32' E 002°34'0 0.0
2018-May-15 19:02N 39°32' E 002°34'0 0.0
2018-May-15 18:53N 39°32' E 002°34'0 0.0
2018-May-15 16:11N 39°32' E 002°34'0 0.0
2018-May-15 15:41N 39°32' E 002°34'0 0.0
2018-May-15 15:29N 39°32' E 002°34'0 0.0
2018-May-15 11:17N 39°32' E 002°34'0 0.0
2018-May-15 06:14N 39°32' E 002°34'0 0.0
2018-May-15 05:11N 39°32' E 002°34'0 0.0
2018-May-15 04:53N 39°32' E 002°34'0 0.0
2018-May-15 04:29N 39°32' E 002°34'0 0.0
2018-May-15 03:59N 39°32' E 002°34'0 0.0
2018-May-15 03:29N 39°32' E 002°34'0 0.0
2018-May-15 02:50N 39°32' E 002°34'0 0.0
2018-May-15 02:29N 39°32' E 002°34'0 0.0
2018-May-15 01:59N 39°32' E 002°34'0 0.0
2018-May-15 01:29N 39°32' E 002°34'0 0.0
2018-May-15 00:59N 39°32' E 002°34'0 0.0
2018-May-15 00:29N 39°32' E 002°34'0 0.0
2018-May-14 23:59N 39°32' E 002°34'0 0.0
2018-May-14 23:29N 39°32' E 002°34'0 0.0
2018-May-14 22:59N 39°32' E 002°34'0 0.0
2018-May-14 22:29N 39°32' E 002°34'0 0.0
2018-May-14 21:22N 39°32' E 002°34'0 0.0
2018-May-14 20:58N 39°32' E 002°34'0 0.0
2018-May-14 20:28N 39°32' E 002°34'0 0.0
2018-May-14 19:10N 39°32' E 002°34'0 0.0
2018-May-14 18:52N 39°32' E 002°34'0 0.0
2018-May-14 18:22N 39°32' E 002°34'0 0.0
2018-May-14 17:55N 39°32' E 002°34'0 0.0
2018-May-14 16:31N 39°32' E 002°34'0 0.0
2018-May-14 16:28N 39°32' E 002°34'0 0.0
2018-May-14 15:58N 39°32' E 002°34'0 0.0
2018-May-14 15:28N 39°32' E 002°34'0 0.0
2018-May-14 14:49N 39°32' E 002°34'0 0.0
2018-May-14 14:28N 39°32' E 002°34'0 0.0
2018-May-14 13:58N 39°32' E 002°34'0 0.0
2018-May-14 13:28N 39°32' E 002°34'0 0.0
2018-May-14 12:58N 39°32' E 002°34'0 0.0
2018-May-14 12:22N 39°32' E 002°34'0 0.0
2018-May-14 11:52N 39°32' E 002°34'0 0.0
2018-May-14 11:28N 39°32' E 002°34'0 0.0
2018-May-14 10:58N 39°32' E 002°34'0 0.0
2018-May-14 10:25N 39°32' E 002°34'0 0.0
2018-May-14 09:55N 39°32' E 002°34'0 0.0
2018-May-14 09:28N 39°32' E 002°34'0 0.0
2018-May-14 08:58N 39°32' E 002°34'0 0.0
2018-May-14 08:28N 39°32' E 002°34'0 0.0
2018-May-14 07:58N 39°32' E 002°34'0 0.0
2018-May-14 07:28N 39°32' E 002°34'0 0.0
2018-May-14 06:52N 39°32' E 002°34'0 0.0
2018-May-14 06:22N 39°32' E 002°34'0 0.0
2018-May-14 05:52N 39°32' E 002°34'0 0.0
2018-May-14 05:28N 39°32' E 002°34'0 0.0
2018-May-14 04:55N 39°32' E 002°34'0 0.0
2018-May-14 04:28N 39°32' E 002°34'0 0.0
2018-May-14 03:58N 39°32' E 002°34'0 0.0
2018-May-14 03:28N 39°32' E 002°34'0 0.0
2018-May-14 02:58N 39°32' E 002°34'0 0.0
2018-May-14 02:28N 39°32' E 002°34'0 0.0
2018-May-14 01:58N 39°32' E 002°34'0 0.0
2018-May-14 01:28N 39°32' E 002°34'0 0.0
2018-May-14 00:58N 39°32' E 002°34'0 0.0
2018-May-14 00:28N 39°32' E 002°34'0 0.0
2018-May-13 23:52N 39°32' E 002°34'0 0.0
2018-May-13 23:28N 39°32' E 002°34'0 0.0
2018-May-13 22:58N 39°32' E 002°34'0 0.0
2018-May-13 22:25N 39°32' E 002°34'0 0.0
2018-May-13 21:58N 39°32' E 002°34'0 0.0
2018-May-13 21:28N 39°32' E 002°34'0 0.0
2018-May-13 20:34N 39°32' E 002°34'0 0.0
2018-May-13 20:22N 39°32' E 002°34'0 0.0
2018-May-13 19:28N 39°32' E 002°34'0 0.0
2018-May-13 18:49N 39°32' E 002°34'0 0.0
2018-May-13 18:28N 39°32' E 002°34'0 0.0
2018-May-13 17:58N 39°32' E 002°34'0 0.0
2018-May-13 17:28N 39°32' E 002°34'0 0.0
2018-May-13 17:01N 39°32' E 002°34'0 0.0
2018-May-13 16:28N 39°32' E 002°34'0 0.0
2018-May-13 16:00N 39°32' E 002°34'0 0.0
2018-May-13 06:54N 39°32' E 002°34'0 0.0
2018-May-13 06:12N 39°32' E 002°34'0 0.0
2018-May-13 05:51N 39°32' E 002°34'0 0.0
2018-May-13 05:30N 39°32' E 002°34'0 0.0
2018-May-13 04:42N 39°32' E 002°34'0 0.0
2018-May-13 04:24N 39°32' E 002°34'0 0.0
2018-May-13 03:57N 39°32' E 002°34'0 0.0
2018-May-13 02:24N 39°32' E 002°34'0 0.0
2018-May-13 02:00N 39°32' E 002°34'0 0.0
2018-May-13 01:27N 39°32' E 002°34'0 0.0
2018-May-13 00:54N 39°32' E 002°34'0 0.0
2018-May-13 00:30N 39°32' E 002°34'0 0.0
2018-May-13 00:00N 39°32' E 002°34'0 0.0
2018-May-12 23:30N 39°32' E 002°34'0 0.0
2018-May-12 23:00N 39°32' E 002°34'0 0.0
2018-May-12 22:30N 39°32' E 002°34'0 0.0
2018-May-12 22:00N 39°32' E 002°34'0 0.0
2018-May-12 21:21N 39°32' E 002°34'0 0.0
2018-May-12 21:00N 39°32' E 002°34'0 0.0
2018-May-12 20:30N 39°32' E 002°34'  

Dump ship's entire track history